Flight Track Log - Related Links

Times and Time Zones

All times are in EDT time to prevent confusion due to time zone crossing. See the SWA864 flight status page for this flight to view local times or setup timezone preferences in your user account.


Time Position Orientation Groundspeed Altitude Reporting Facility
EDT Latitude Longitude Course Direction KTS MPH feet Rate Location/Type
Sat 07:34:59 PM 28.4167 -81.3000 180° South 163 188 800  Level Orlando TRACON
Sat 07:35:17 PM 28.4000 -81.3000 180° South 163 188 1,400 2,769 Climbing Orlando TRACON
Sat 07:36:30 PM 28.3333 -81.3333 204° Southwest 202 232 5,000 2,952 Climbing Orlando TRACON
Sat 07:37:23 PM 28.3500 -81.4000 286° West 256 295 7,600 3,050 Climbing Orlando TRACON
Sat 07:38:30 PM 28.3667 -81.5000 281° West 299 344 11,100 3,094 Climbing Orlando TRACON
Sat 07:40:02 PM 28.4086 -81.6300 290° West 354 407 15,800 3,197 Climbing Jacksonville Center
Sat 07:41:02 PM 28.4475 -81.7569 289° West 360 414 19,200 3,350 Climbing Jacksonville Center
Sat 07:42:02 PM 28.4778 -81.8675 287° West 360 414 22,500 2,400 Climbing Jacksonville Center
Sat 07:43:02 PM 28.5097 -81.9761 289° West 360 414 24,000 1,800 Climbing Jacksonville Center
Sat 07:44:02 PM 28.5419 -82.0914 288° West 365 420 26,100 2,100 Climbing Jacksonville Center
Sat 07:45:02 PM 28.5717 -82.2142 285° West 389 448 28,200 1,900 Climbing Jacksonville Center
Sat 07:46:02 PM 28.6058 -82.3464 286° West 410 472 29,900 900 Climbing Jacksonville Center
Sat 07:47:02 PM 28.6397 -82.4786 286° West 424 488 30,000 800 Climbing Jacksonville Center
Sat 07:48:02 PM 28.7214 -82.5800 313° West 424 488 31,500 2,400 Climbing Jacksonville Center
Sat 07:49:02 PM 28.8258 -82.6581 327° Northwest 429 494 34,800 3,350 Climbing Jacksonville Center
Sat 07:50:02 PM 28.9178 -82.7267 327° Northwest 423 487 38,200 2,600 Climbing Jacksonville Center
Sat 07:51:02 PM 29.0078 -82.7881 329° Northwest 399 459 40,000 900 Climbing Jacksonville Center
Sat 07:52:02 PM 29.0953 -82.8544 326° Northwest 381 438 40,000  Level Jacksonville Center
Sat 07:53:02 PM 29.1808 -82.9186 327° Northwest 381 438 40,000  Level Jacksonville Center
Sat 07:54:02 PM 29.2706 -82.9831 328° Northwest 376 433 40,000  Level Jacksonville Center
Sat 07:55:02 PM 29.3583 -83.0497 327° Northwest 376 433 40,000  Level Jacksonville Center
Sat 07:56:02 PM 29.4500 -83.1167 328° Northwest 376 433 40,000  Level Jacksonville Center
Sat 07:57:02 PM 29.5356 -83.1792 328° Northwest 387 445 40,000  Level Jacksonville Center
Sat 07:58:02 PM 29.6231 -83.2461 326° Northwest 392 451 40,000  Level Jacksonville Center
Sat 07:59:02 PM 29.7106 -83.3158 325° Northwest 387 445 40,000  Level Jacksonville Center
Sat 08:00:02 PM 29.8000 -83.3808 328° Northwest 382 440 40,000  Level Jacksonville Center
Sat 08:01:02 PM 29.8894 -83.4458 328° Northwest 382 440 40,000 -50 Level Jacksonville Center
Sat 08:02:02 PM 29.9769 -83.5111 327° Northwest 382 440 39,900  Descending Jacksonville Center
Sat 08:03:02 PM 30.0664 -83.5789 327° Northwest 382 440 40,000 50 Climbing Jacksonville Center
Sat 08:04:02 PM 30.1536 -83.6444 327° Northwest 382 440 40,000  Level Jacksonville Center
Sat 08:05:02 PM 30.2450 -83.7125 327° Northwest 382 440 40,000  Level Jacksonville Center
Sat 08:06:02 PM 30.3322 -83.7806 326° Northwest 382 440 40,000  Level Jacksonville Center
Sat 08:07:02 PM 30.4217 -83.8467 327° Northwest 382 440 40,000  Level Jacksonville Center
Sat 08:08:02 PM 30.5108 -83.9172 326° Northwest 382 440 40,000  Level Jacksonville Center
Sat 08:09:02 PM 30.6022 -83.9883 326° Northwest 376 433 40,000  Level Jacksonville Center
Sat 08:10:02 PM 30.6933 -84.0569 327° Northwest 376 433 40,000  Level Jacksonville Center
Sat 08:11:02 PM 30.7825 -84.1283 325° Northwest 376 433 40,000  Level Jacksonville Center
Sat 08:12:02 PM 30.8694 -84.1972 326° Northwest 382 440 40,000  Level Jacksonville Center
Sat 08:13:02 PM 30.9564 -84.2636 327° Northwest 382 440 40,000  Level Jacksonville Center
Sat 08:14:02 PM 31.0433 -84.3306 327° Northwest 382 440 40,000  Level Jacksonville Center
Sat 08:15:02 PM 31.1303 -84.3972 327° Northwest 382 440 40,000  Level Jacksonville Center
Sat 08:16:02 PM 31.2194 -84.4667 326° Northwest 382 440 40,000  Level Jacksonville Center
Sat 08:17:58 PM 31.3803 -84.5933 326° Northwest 386 444 40,000  Level Atlanta Center
Sat 08:18:58 PM 31.4675 -84.6622 326° Northwest 386 444 40,000  Level Atlanta Center
Sat 08:19:58 PM 31.5528 -84.7286 326° Northwest 381 438 40,000  Level Atlanta Center
Sat 08:20:58 PM 31.6419 -84.8000 326° Northwest 381 438 40,000  Level Atlanta Center
Sat 08:21:58 PM 31.7356 -84.8739 326° Northwest 376 433 40,000  Level Atlanta Center
Sat 08:22:58 PM 31.8247 -84.9433 327° Northwest 376 433 40,000  Level Atlanta Center
Sat 08:23:58 PM 31.9119 -85.0125 326° Northwest 376 433 40,000  Level Atlanta Center
Sat 08:24:58 PM 31.9989 -85.0822 326° Northwest 376 433 40,000  Level Atlanta Center
Sat 08:25:58 PM 32.0839 -85.1444 328° Northwest 376 433 40,000  Level Atlanta Center
Sat 08:26:58 PM 32.1731 -85.2142 327° Northwest 376 433 40,000  Level Atlanta Center
Sat 08:27:58 PM 32.2581 -85.2842 325° Northwest 376 433 40,000  Level Atlanta Center
Sat 08:28:58 PM 32.3469 -85.3542 326° Northwest 376 433 40,000  Level Atlanta Center
Sat 08:29:58 PM 32.4319 -85.4219 326° Northwest 376 433 40,000  Level Atlanta Center
Sat 08:30:58 PM 32.5208 -85.4947 325° Northwest 376 433 40,000  Level Atlanta Center
Sat 08:31:58 PM 32.6056 -85.5603 327° Northwest 376 433 40,000  Level Atlanta Center
Sat 08:32:58 PM 32.6922 -85.6333 325° Northwest 376 433 40,000  Level Atlanta Center
Sat 08:33:58 PM 32.7789 -85.7064 325° Northwest 376 433 40,000  Level Atlanta Center
Sat 08:34:58 PM 32.8678 -85.7750 327° Northwest 376 433 40,000  Level Atlanta Center
Sat 08:35:58 PM 32.9544 -85.8461 325° Northwest 376 433 40,000  Level Atlanta Center
Sat 08:36:58 PM 33.0431 -85.9197 325° Northwest 382 440 40,000  Level Atlanta Center
Sat 08:37:58 PM 33.1317 -85.9911 326° Northwest 382 440 40,000  Level Atlanta Center
Sat 08:38:58 PM 33.2142 -86.0575 326° Northwest 382 440 40,000  Level Atlanta Center
Sat 08:39:58 PM 33.3028 -86.1192 330° Northwest 382 440 40,000  Level Atlanta Center
Sat 08:40:58 PM 33.3933 -86.2058 321° Northwest 389 448 40,000  Level Atlanta Center
Sat 08:41:58 PM 33.4817 -86.2778 326° Northwest 394 453 40,000  Level Atlanta Center
Sat 08:42:58 PM 33.5742 -86.3600 323° Northwest 383 441 40,000  Level Atlanta Center
Sat 08:43:58 PM 33.6625 -86.4322 326° Northwest 378 435 40,000  Level Atlanta Center
Sat 08:44:58 PM 33.7508 -86.5047 326° Northwest 378 435 40,000  Level Atlanta Center
Sat 08:45:58 PM 33.8392 -86.5772 326° Northwest 378 435 40,000  Level Atlanta Center
Sat 08:46:58 PM 33.9253 -86.6525 324° Northwest 378 435 40,000  Level Atlanta Center
Sat 08:47:58 PM 34.0114 -86.7253 325° Northwest 378 435 40,000  Level Atlanta Center
Sat 08:48:58 PM 34.0994 -86.7983 326° Northwest 378 435 40,000  Level Atlanta Center
Sat 08:50:08 PM 34.2033 -86.8864 325° Northwest 398 458 40,000  Level Memphis Center
Sat 08:51:08 PM 34.2803 -86.9536 324° Northwest 393 452 40,000  Level Memphis Center
Sat 08:52:08 PM 34.3700 -87.0306 325° Northwest 388 447 40,000  Level Memphis Center
Sat 08:53:08 PM 34.4575 -87.1028 326° Northwest 388 447 40,000  Level Memphis Center
Sat 08:54:08 PM 34.5453 -87.1825 323° Northwest 388 447 40,000  Level Memphis Center
Sat 08:55:08 PM 34.6325 -87.2550 326° Northwest 388 447 40,000  Level Memphis Center
Sat 08:56:08 PM 34.7222 -87.3328 325° Northwest 388 447 40,000  Level Memphis Center
Sat 08:57:08 PM 34.8161 -87.4178 323° Northwest 388 447 40,000  Level Memphis Center
Sat 08:58:08 PM 34.9053 -87.4933 325° Northwest 388 447 40,000  Level Memphis Center
Sat 08:59:08 PM 34.9925 -87.5664 326° Northwest 388 447 40,000  Level Memphis Center
Sat 09:00:08 PM 35.0842 -87.6494 323° Northwest 393 452 40,000  Level Memphis Center
Sat 09:01:08 PM 35.1756 -87.7253 326° Northwest 393 452 40,000  Level Memphis Center
Sat 09:02:08 PM 35.2667 -87.8039 325° Northwest 398 458 40,000  Level Memphis Center
Sat 09:03:08 PM 35.3581 -87.8825 325° Northwest 398 458 40,000  Level Memphis Center
Sat 09:04:08 PM 35.4472 -87.9639 323° Northwest 398 458 40,000  Level Memphis Center
Sat 09:05:08 PM 35.5258 -88.0331 324° Northwest 391 450 40,000  Level Memphis Center
Sat 09:06:08 PM 35.6150 -88.1147 323° Northwest 396 456 40,000  Level Memphis Center
Sat 09:07:08 PM 35.7081 -88.1889 327° Northwest 396 456 40,000  Level Memphis Center
Sat 09:08:08 PM 35.7969 -88.2661 325° Northwest 396 456 40,000  Level Memphis Center
Sat 09:09:08 PM 35.8858 -88.3483 323° Northwest 396 456 40,000  Level Memphis Center
Sat 09:10:08 PM 35.9767 -88.4306 324° Northwest 396 456 40,000  Level Memphis Center
Sat 09:11:08 PM 36.0697 -88.5106 325° Northwest 396 456 40,000  Level Memphis Center
Sat 09:12:08 PM 36.1606 -88.5933 324° Northwest 401 461 40,000  Level Memphis Center
Sat 09:13:08 PM 36.2536 -88.6764 324° Northwest 401 461 40,000  Level Memphis Center
Sat 09:14:08 PM 36.3442 -88.7594 324° Northwest 401 461 40,000  Level Memphis Center
Sat 09:15:08 PM 36.4350 -88.8403 324° Northwest 401 461 40,000  Level Memphis Center
Sat 09:16:08 PM 36.5275 -88.9264 323° Northwest 406 467 40,000  Level Memphis Center
Sat 09:17:08 PM 36.6203 -89.0075 325° Northwest 406 467 40,000  Level Memphis Center
Sat 09:18:08 PM 36.7128 -89.0939 323° Northwest 411 473 40,000 -450 Level Memphis Center
Sat 09:19:08 PM 36.8011 -89.1781 323° Northwest 411 473 39,100 -1,550 Descending Memphis Center
Sat 09:20:08 PM 36.8894 -89.2622 323° Northwest 411 473 36,900 -2,650 Descending Memphis Center
Sat 09:21:08 PM 36.9797 -89.3467 323° Northwest 411 473 33,800 -3,014 Descending Memphis Center
Sat 09:23:37 PM 37.2106 -89.5567 324° Northwest 398 458 26,400 -2,229 Descending Kansas City Center
Sat 09:24:38 PM 37.3056 -89.6167 333° Northwest 391 450 26,000 -197 Descending Kansas City Center
Sat 09:25:39 PM 37.4033 -89.6686 337° Northwest 384 442 26,000  Level Kansas City Center
Sat 09:26:40 PM 37.5017 -89.7222 337° Northwest 385 443 26,000  Level Kansas City Center
Sat 09:27:41 PM 37.5958 -89.7750 336° Northwest 387 445 26,000 -1,033 Level Kansas City Center
Sat 09:28:42 PM 37.6942 -89.8272 337° Northwest 386 444 23,900 -2,213 Descending Kansas City Center
Sat 09:29:43 PM 37.7869 -89.8794 336° Northwest 373 429 21,500 -2,557 Descending Kansas City Center
Sat 09:30:44 PM 37.8939 -89.9383 337° Northwest 354 407 18,700 -2,508 Descending Kansas City Center
Sat 09:31:45 PM 37.9797 -89.9842 337° Northwest 339 390 16,400 -2,281 Descending Kansas City Center
Sat 09:32:45 PM 38.0619 -90.0319 335° Northwest 326 375 14,100 -2,231 Descending Kansas City Center
Sat 09:33:46 PM 38.1425 -90.0714 339° North 314 361 11,900 -1,820 Descending Kansas City Center
Sat 09:34:47 PM 38.2275 -90.0800 355° North 307 353 10,400 -1,180 Descending Kansas City Center
Sat 09:35:48 PM 38.3044 -90.0883 355° North 287 330 9,500 -1,082 Descending Kansas City Center
Sat 09:36:49 PM 38.3736 -90.0958 355° North 260 299 8,200 -984 Descending Kansas City Center
Sat 09:37:50 PM 38.4364 -90.1017 356° North 244 281 7,500 -1,525 Descending Kansas City Center
Sat 09:38:51 PM 38.5053 -90.1206 348° North 242 278 5,100 -1,934 Descending Kansas City Center
Sat 09:39:51 PM 38.5706 -90.1397 347° North 243 280 3,600 -793 Descending Kansas City Center
Sat 09:40:52 PM 38.6225 -90.1794 329° Northwest 228 262 3,500 -295 Descending Kansas City Center
Sat 09:41:53 PM 38.6658 -90.2111 330° Northwest 203 234 3,000 -590 Descending Kansas City Center
Sat 09:42:54 PM 38.6931 -90.2475 314° West 174 200 2,300 -694 Descending Kansas City Center
Sat 09:43:54 PM 38.7133 -90.2889 302° West 152 175 1,600 -744 Descending Kansas City Center
Sat 09:44:55 PM 38.7350 -90.3311 303° West 131 151 800 -443 Descending Kansas City Center
Sat 09:45:56 PM 38.7533 -90.3689 302° West 130 150 700 -98 Descending Kansas City Center
Sat 09:47:00 PM 38.7487 -90.3700 90° East  Level Estimated

Login

Don't have an account? Register now (free) for customized features, flight alerts, and more!